Terminal Aerodrome Forecast
Issued by NWS Sioux Falls, SD

Home | Current Version | Previous Version | Text Only | Print | Product List | Glossary Off
Versions: 1 2 3 4 5 6 7 8 9 10 11 12 13 14 15 16 17 18 19 20 21 22 23 24 25 26

000
FTUS43 KFSD 260521
TAFHON
TAF
KHON 260521Z 2606/2706 33006KT P6SM OVC025
     FM260800 34005KT P6SM OVC015
      TEMPO 2611/2614 5SM BR BKN010
     FM261400 03007KT P6SM BKN015
     FM261800 07010KT P6SM BKN035
     FM270000 07016G23KT P6SM VCSH OVC050
     FM270300 06015G23KT P6SM SHRA OVC015=

USA.gov is the U.S. government's official web portal to all federal, state and local government web resources and services.